Time;durP1;ratioP1;P1;durP2;ratioP2;P2;SDS_P1;SDS_P2;PMS_P1;PMS_P2;Temp;Humidity;BMP_temperature;BMP_pressure;BME280_temperature;BME280_humidity;BME280_pressure;Samples;Min_cycle;Max_cycle;Signal;HPM_P1;HPM_P2
2021/03/19 00:01:12;;;;;;;15.13;11.43;;;;;;;6.07;100.00;100990.25;4881539;29;20025;-75
2021/03/19 00:03:58;;;;;;;15.13;11.88;;;;;;;5.80;100.00;100991.81;4880686;29;20129;-75
2021/03/19 00:06:44;;;;;;;16.55;12.93;;;;;;;6.43;100.00;100984.34;4881368;29;20033;-75
2021/03/19 00:09:30;;;;;;;14.80;11.88;;;;;;;6.10;100.00;100995.47;4868344;29;20419;-74
2021/03/19 00:12:15;;;;;;;16.38;11.90;;;;;;;6.26;100.00;100997.28;4881270;29;20436;-75
2021/03/19 00:15:03;;;;;;;15.43;12.05;;;;;;;6.02;100.00;100993.72;4868242;29;20455;-75
2021/03/19 00:17:49;;;;;;;17.60;12.93;;;;;;;6.13;100.00;100992.00;4867640;29;20136;-74
2021/03/19 00:20:39;;;;;;;18.23;13.57;;;;;;;6.52;100.00;100989.56;4867971;29;20048;-75
2021/03/19 00:23:25;;;;;;;17.77;13.70;;;;;;;6.16;100.00;100990.31;4880494;29;20064;-75
2021/03/19 00:26:11;;;;;;;17.67;13.32;;;;;;;5.58;100.00;100983.00;4880919;29;20025;-75
2021/03/19 00:28:57;;;;;;;17.38;13.48;;;;;;;6.11;100.00;100985.94;4881090;29;20115;-75
2021/03/19 00:31:42;;;;;;;19.00;14.30;;;;;;;5.72;100.00;100983.09;4881152;29;20073;-74
2021/03/19 00:34:28;;;;;;;18.80;14.07;;;;;;;5.43;100.00;100982.91;4880618;29;20112;-75
2021/03/19 00:37:14;;;;;;;19.88;14.68;;;;;;;5.34;100.00;100985.41;4867611;29;20407;-73
2021/03/19 00:40:00;;;;;;;22.50;15.38;;;;;;;5.52;100.00;100975.16;4868197;29;20045;-74
2021/03/19 00:42:46;;;;;;;19.70;14.65;;;;;;;5.76;100.00;100980.53;4867658;29;20111;-74
2021/03/19 00:45:32;;;;;;;22.95;15.07;;;;;;;5.67;100.00;100977.88;4880514;29;20032;-75
2021/03/19 00:48:18;;;;;;;20.38;14.32;;;;;;;5.71;100.00;100969.25;4880384;29;20029;-74
2021/03/19 00:51:04;;;;;;;20.13;15.10;;;;;;;5.49;100.00;100972.53;4880740;29;20086;-75
2021/03/19 00:53:50;;;;;;;21.42;15.65;;;;;;;5.79;100.00;100970.13;4866594;29;20049;-75
2021/03/19 00:56:36;;;;;;;22.75;16.05;;;;;;;5.86;100.00;100963.28;4867622;29;20412;-74
2021/03/19 00:59:22;;;;;;;22.35;15.80;;;;;;;5.59;100.00;100966.56;4879947;29;20348;-74
2021/03/19 01:02:08;;;;;;;19.60;14.43;;;;;;;5.52;100.00;100963.91;4880299;29;20033;-74
2021/03/19 01:04:54;;;;;;;19.15;14.00;;;;;;;5.14;100.00;100969.69;4880135;29;20035;-73
2021/03/19 01:07:40;;;;;;;21.10;14.23;;;;;;;5.19;100.00;100967.97;4879934;29;20025;-75
2021/03/19 01:10:47;;;;;;;21.13;14.98;;;;;;;5.28;100.00;100970.63;4880136;29;20021;-74
2021/03/19 01:13:34;;;;;;;24.02;15.23;;;;;;;5.38;100.00;100959.47;4867505;29;20363;-75
2021/03/19 01:16:20;;;;;;;22.27;15.75;;;;;;;5.90;100.00;100960.69;4867268;29;20064;-74
2021/03/19 01:19:06;;;;;;;22.70;15.30;;;;;;;5.91;100.00;100958.97;4867343;29;20510;-74
2021/03/19 01:21:51;;;;;;;22.65;15.43;;;;;;;5.85;100.00;100964.13;4879947;29;20039;-75
2021/03/19 01:24:37;;;;;;;25.73;16.27;;;;;;;5.84;100.00;100967.59;4866249;29;20060;-75
2021/03/19 01:27:23;;;;;;;25.23;16.33;;;;;;;5.34;100.00;100973.31;4866917;29;20477;-75
2021/03/19 01:30:11;;;;;;;24.40;16.45;;;;;;;5.27;100.00;100974.09;4880303;29;20073;-74
2021/03/19 01:32:57;;;;;;;26.17;17.77;;;;;;;5.00;100.00;100968.72;4879910;29;20040;-75
2021/03/19 01:35:43;;;;;;;26.98;18.30;;;;;;;4.79;100.00;100965.88;4879658;29;20029;-74
2021/03/19 01:38:29;;;;;;;30.05;18.67;;;;;;;5.30;100.00;100965.47;4867753;29;20188;-75
2021/03/19 01:41:15;;;;;;;28.15;19.58;;;;;;;5.29;100.00;100955.94;4879930;29;20028;-75
2021/03/19 01:44:02;;;;;;;30.60;20.70;;;;;;;5.71;100.00;100958.84;4879828;29;20029;-74
2021/03/19 01:47:25;;;;;;;27.58;19.77;;;;;;;5.33;100.00;100960.28;4880392;29;20103;-75
2021/03/19 01:50:50;;;;;;;29.13;19.75;;;;;;;5.59;100.00;100952.69;4880046;29;20117;-75
2021/03/19 01:54:13;;;;;;;26.98;19.52;;;;;;;4.81;100.00;100958.13;4834005;29;20144;-73
2021/03/19 01:57:36;;;;;;;28.08;18.60;;;;;;;5.00;100.00;100970.41;4879060;29;20037;-74
2021/03/19 02:00:59;;;;;;;27.67;19.70;;;;;;;4.68;100.00;100967.53;4878897;29;20478;-74
2021/03/19 02:04:22;;;;;;;28.30;18.63;;;;;;;5.14;100.00;100967.09;4878743;29;20420;-74
2021/03/19 02:07:45;;;;;;;25.83;18.27;;;;;;;5.64;100.00;100963.97;4878581;29;20103;-74
2021/03/19 02:11:08;;;;;;;26.77;18.98;;;;;;;5.20;100.00;100966.25;4866621;29;20323;-74
2021/03/19 02:14:31;;;;;;;31.27;19.38;;;;;;;5.20;100.00;100969.72;4878477;29;20029;-74
2021/03/19 02:17:54;;;;;;;26.20;18.67;;;;;;;5.55;100.00;100971.72;4878384;29;20025;-75
2021/03/19 02:21:22;;;;;;;25.70;17.85;;;;;;;5.56;100.00;100970.84;4869402;29;20059;-74
2021/03/19 02:24:46;;;;;;;28.15;19.13;;;;;;;5.65;100.00;100973.50;4853781;29;20033;-75
2021/03/19 02:28:09;;;;;;;26.58;17.83;;;;;;;5.54;100.00;100981.22;4882594;29;20072;-75
2021/03/19 02:31:12;;;;;;;24.90;16.88;;;;;;;5.56;100.00;100976.94;4882323;29;20112;-74
2021/03/19 02:34:01;;;;;;;23.65;16.52;;;;;;;5.50;100.00;100970.81;4870109;29;20037;-75
2021/03/19 02:36:47;;;;;;;22.95;16.80;;;;;;;5.60;100.00;100977.81;4882295;29;20382;-75
2021/03/19 02:39:32;;;;;;;26.02;16.60;;;;;;;5.50;100.00;100973.41;4869792;29;20103;-74
2021/03/19 02:42:22;;;;;;;24.15;16.92;;;;;;;5.90;100.00;100972.84;4882252;29;20047;-74
2021/03/19 02:45:15;;;;;;;26.83;17.77;;;;;;;5.69;100.00;100970.06;4869176;29;20029;-74
2021/03/19 02:48:00;;;;;;;25.05;17.35;;;;;;;5.44;100.00;100969.91;4882252;29;20064;-74
2021/03/19 02:50:47;;;;;;;25.60;17.35;;;;;;;5.59;100.00;100961.38;4868851;29;20119;-75
2021/03/19 02:53:35;;;;;;;25.35;16.85;;;;;;;5.47;100.00;100971.69;4881992;29;20065;-75
2021/03/19 02:56:21;;;;;;;24.00;16.13;;;;;;;5.62;100.00;100963.13;4882742;29;20097;-74
2021/03/19 02:59:07;;;;;;;26.70;17.30;;;;;;;5.54;100.00;100964.78;4882109;29;20032;-74
2021/03/19 03:01:53;;;;;;;23.73;16.15;;;;;;;4.79;100.00;100972.81;4882533;29;20044;-74
2021/03/19 03:04:38;;;;;;;25.23;17.08;;;;;;;5.41;100.00;100966.41;4881923;29;20041;-75
2021/03/19 03:07:28;;;;;;;24.52;16.67;;;;;;;5.02;100.00;100973.88;4883369;29;20093;-75
2021/03/19 03:10:17;;;;;;;27.02;18.25;;;;;;;5.15;100.00;100983.53;4869959;29;20033;-74
2021/03/19 03:13:03;;;;;;;25.27;17.30;;;;;;;5.27;100.00;100976.69;4881936;29;20029;-74
2021/03/19 03:15:50;;;;;;;27.58;18.35;;;;;;;5.42;100.00;100973.34;4868563;29;20157;-74
2021/03/19 03:18:36;;;;;;;24.13;16.58;;;;;;;5.27;100.00;100968.06;4882510;29;20463;-74
2021/03/19 03:21:21;;;;;;;28.63;17.83;;;;;;;5.15;100.00;100968.81;4869127;29;20526;-74
2021/03/19 03:24:09;;;;;;;26.67;18.33;;;;;;;5.09;100.00;100973.97;4881627;29;20383;-74
2021/03/19 03:26:54;;;;;;;27.73;18.27;;;;;;;5.39;100.00;100974.19;4881429;29;20127;-74
2021/03/19 03:29:40;;;;;;;28.20;18.55;;;;;;;5.55;100.00;100967.41;4882116;29;20033;-75
2021/03/19 03:32:26;;;;;;;27.23;18.35;;;;;;;5.38;100.00;100972.47;4881186;29;20021;-75
2021/03/19 03:35:13;;;;;;;27.50;18.08;;;;;;;5.13;100.00;100974.84;4881365;29;20033;-74
2021/03/19 03:38:01;;;;;;;28.67;18.05;;;;;;;5.41;100.00;100976.81;4881600;29;20044;-74
2021/03/19 03:40:53;;;;;;;26.80;17.85;;;;;;;5.40;100.00;100972.47;4882122;29;20093;-74
2021/03/19 03:43:38;;;;;;;26.63;18.02;;;;;;;5.32;100.00;100980.19;4868591;29;20033;-74
2021/03/19 03:46:26;;;;;;;29.35;19.00;;;;;;;5.27;100.00;100979.31;4868427;29;20043;-74
2021/03/19 03:49:14;;;;;;;28.08;18.23;;;;;;;5.38;100.00;100971.59;4881182;29;20061;-74
2021/03/19 03:52:00;;;;;;;28.50;18.20;;;;;;;5.24;100.00;100975.81;4880650;29;20155;-74
2021/03/19 03:54:46;;;;;;;30.13;18.95;;;;;;;5.36;100.00;100974.16;4880889;29;20029;-74
2021/03/19 03:57:31;;;;;;;27.88;18.50;;;;;;;5.31;100.00;100972.44;4880948;29;20033;-75
2021/03/19 04:00:22;;;;;;;25.15;16.77;;;;;;;5.23;100.00;100980.13;4868140;29;20033;-74
2021/03/19 04:03:10;;;;;;;25.08;16.05;;;;;;;5.26;100.00;100982.75;4867837;29;20104;-74
2021/03/19 04:05:57;;;;;;;25.65;16.50;;;;;;;5.17;100.00;100982.69;4881188;29;20032;-75
2021/03/19 04:08:43;;;;;;;24.58;16.55;;;;;;;4.67;100.00;100980.50;4880814;29;20035;-75
2021/03/19 04:11:29;;;;;;;23.38;15.65;;;;;;;5.00;100.00;100986.00;4868286;29;20029;-75
2021/03/19 04:14:15;;;;;;;23.77;15.98;;;;;;;5.12;100.00;100981.78;4882241;29;20112;-75
2021/03/19 04:17:06;;;;;;;22.98;15.35;;;;;;;4.64;100.00;100983.91;4880862;29;20032;-75
2021/03/19 04:19:52;;;;;;;23.08;15.38;;;;;;;4.84;100.00;100979.81;4880533;29;20025;-75
2021/03/19 04:22:39;;;;;;;24.95;16.38;;;;;;;5.11;100.00;100985.22;4880387;29;20029;-75
2021/03/19 04:25:25;;;;;;;23.52;15.93;;;;;;;5.22;100.00;100978.41;4881023;29;20033;-75
2021/03/19 04:28:17;;;;;;;23.65;16.33;;;;;;;5.40;100.00;100978.53;4880356;29;20347;-75
2021/03/19 04:31:05;;;;;;;22.83;16.02;;;;;;;4.75;100.00;100981.44;4880255;29;20041;-75
2021/03/19 04:33:51;;;;;;;27.10;17.90;;;;;;;5.38;100.00;100977.66;4879994;29;20033;-75
2021/03/19 04:36:44;;;;;;;25.70;16.85;;;;;;;4.96;100.00;100981.63;4880780;29;20059;-75
2021/03/19 04:39:32;;;;;;;27.33;18.10;;;;;;;5.06;100.00;100988.63;4880250;29;20025;-75
2021/03/19 04:42:18;;;;;;;27.75;18.88;;;;;;;5.29;100.00;100987.09;4879429;29;20037;-75
2021/03/19 04:45:05;;;;;;;27.08;18.55;;;;;;;5.14;100.00;100982.66;4867020;29;20040;-74
2021/03/19 04:47:53;;;;;;;27.33;18.27;;;;;;;4.64;100.00;100986.53;4880079;29;20041;-75
2021/03/19 04:50:40;;;;;;;28.90;18.90;;;;;;;4.91;100.00;100984.19;4880187;29;20088;-75
2021/03/19 04:53:25;;;;;;;28.05;18.60;;;;;;;4.67;100.00;100986.53;4867216;29;20057;-75
2021/03/19 04:56:11;;;;;;;30.10;20.10;;;;;;;4.91;100.00;100985.91;4880338;29;20096;-75
2021/03/19 04:58:57;;;;;;;33.95;21.65;;;;;;;5.00;100.00;100984.28;4880002;29;20094;-75
2021/03/19 05:02:01;;;;;;;33.35;21.67;;;;;;;4.90;100.00;100984.16;4879640;29;20040;-75
2021/03/19 05:04:46;;;;;;;34.20;22.13;;;;;;;4.81;100.00;100984.97;4880657;29;20025;-75
2021/03/19 05:07:32;;;;;;;34.63;21.90;;;;;;;5.33;100.00;100987.16;4880039;29;20036;-75
2021/03/19 05:10:21;;;;;;;34.20;21.02;;;;;;;4.81;100.00;100989.25;4880227;29;20374;-75
2021/03/19 05:13:09;;;;;;;34.95;21.90;;;;;;;4.51;100.00;100989.81;4880610;29;20351;-75
2021/03/19 05:15:55;;;;;;;34.72;21.42;;;;;;;4.45;100.00;100989.75;4880425;29;20036;-75
2021/03/19 05:18:41;;;;;;;34.22;21.08;;;;;;;5.09;100.00;100989.56;4879452;29;20489;-74
2021/03/19 05:21:27;;;;;;;29.63;19.75;;;;;;;5.11;100.00;100995.63;4879325;29;20056;-74
2021/03/19 05:24:13;;;;;;;34.60;19.92;;;;;;;4.77;100.00;101000.47;4867014;29;20033;-75
2021/03/19 05:26:59;;;;;;;28.90;18.58;;;;;;;4.74;100.00;101003.91;4866912;29;20029;-74
2021/03/19 05:29:46;;;;;;;28.27;18.75;;;;;;;4.84;100.00;101004.88;4879385;29;20069;-74
2021/03/19 05:32:32;;;;;;;30.35;19.88;;;;;;;4.76;100.00;101003.94;4866543;29;20136;-74
2021/03/19 05:35:21;;;;;;;32.38;21.80;;;;;;;5.06;100.00;101015.47;4880731;29;20485;-73
2021/03/19 05:38:07;;;;;;;35.75;22.42;;;;;;;4.92;100.00;101011.91;4879746;29;20397;-75
2021/03/19 05:40:57;;;;;;;38.50;24.90;;;;;;;4.64;100.00;101009.88;4879133;29;20175;-75
2021/03/19 05:43:48;;;;;;;38.47;25.33;;;;;;;5.13;100.00;101006.91;4880430;29;20440;-75
2021/03/19 05:46:36;;;;;;;37.72;23.75;;;;;;;4.97;100.00;101012.81;4879551;29;20040;-75
2021/03/19 05:49:32;;;;;;;39.50;24.77;;;;;;;5.27;100.00;101005.28;4865951;29;20119;-74
2021/03/19 05:52:22;;;;;;;40.72;24.17;;;;;;;5.39;100.00;101007.97;4879020;29;20057;-75
2021/03/19 05:55:18;;;;;;;38.40;23.88;;;;;;;5.26;100.00;101005.25;4883373;29;20069;-75
2021/03/19 05:58:11;;;;;;;42.08;25.17;;;;;;;5.40;100.00;101009.69;4883369;29;20208;-75
2021/03/19 06:00:59;;;;;;;40.00;25.58;;;;;;;5.25;100.00;101004.41;4882991;29;20116;-74
2021/03/19 06:03:45;;;;;;;41.53;25.10;;;;;;;4.81;100.00;101007.44;4883296;29;20476;-73
2021/03/19 06:06:53;;;;;;;41.25;24.88;;;;;;;5.59;100.00;101004.66;4883167;29;20104;-75
2021/03/19 06:09:41;;;;;;;44.60;25.77;;;;;;;5.37;100.00;101011.41;4883049;29;20056;-74
2021/03/19 06:12:27;;;;;;;50.20;29.35;;;;;;;5.65;100.00;101007.28;4884128;29;20040;-74
2021/03/19 06:15:28;;;;;;;39.28;24.92;;;;;;;6.16;100.00;101011.13;4869437;29;20115;-75
2021/03/19 06:18:39;;;;;;;36.15;23.80;;;;;;;6.11;100.00;101011.97;4882630;29;20105;-75
2021/03/19 06:21:32;;;;;;;39.65;24.60;;;;;;;5.63;100.00;101014.22;4883200;29;20060;-75
2021/03/19 06:24:27;;;;;;;36.40;22.95;;;;;;;5.82;100.00;101022.19;4882587;29;20033;-75
2021/03/19 06:27:26;;;;;;;33.92;22.25;;;;;;;5.88;100.00;101013.53;4882395;29;20029;-75
2021/03/19 06:30:37;;;;;;;37.67;24.08;;;;;;;6.51;100.00;101016.47;4882729;29;20101;-75
2021/03/19 06:33:27;;;;;;;36.50;22.90;;;;;;;6.17;100.00;101022.38;4870518;29;20025;-74
2021/03/19 06:36:18;;;;;;;33.25;21.35;;;;;;;6.33;100.00;101022.47;4882278;29;20033;-74
2021/03/19 06:39:06;;;;;;;33.25;20.92;;;;;;;6.60;100.00;101033.00;4882762;29;20542;-74
2021/03/19 06:42:03;;;;;;;34.15;21.30;;;;;;;6.45;100.00;101025.13;4882964;29;20079;-75
2021/03/19 06:45:22;;;;;;;32.88;21.48;;;;;;;6.66;100.00;101025.19;4881831;29;20415;-75
2021/03/19 06:48:30;;;;;;;31.20;20.35;;;;;;;6.64;100.00;101026.94;4882277;29;20505;-75
2021/03/19 06:51:31;;;;;;;25.02;17.35;;;;;;;6.28;100.00;101029.38;4869405;29;20029;-74
2021/03/19 06:54:24;;;;;;;21.23;14.48;;;;;;;6.57;100.00;101027.78;4883068;29;20072;-74
2021/03/19 06:57:13;;;;;;;20.70;13.90;;;;;;;6.50;100.00;101019.91;4882779;29;20025;-74
2021/03/19 07:00:02;;;;;;;19.38;13.18;;;;;;;6.13;100.00;101023.22;4882553;29;20435;-74
2021/03/19 07:02:54;;;;;;;19.60;12.98;;;;;;;6.45;100.00;101022.53;4881816;29;20471;-75
2021/03/19 07:05:51;;;;;;;19.80;12.52;;;;;;;6.51;100.00;101025.13;4881881;29;20430;-75
2021/03/19 07:08:51;;;;;;;19.85;13.05;;;;;;;6.76;100.00;101026.09;4869054;29;20037;-75
2021/03/19 07:11:43;;;;;;;22.63;14.15;;;;;;;6.65;100.00;101030.38;4868743;29;20559;-74
2021/03/19 07:14:34;;;;;;;18.58;13.40;;;;;;;7.24;100.00;101034.84;4881342;29;20111;-74
2021/03/19 07:17:41;;;;;;;19.95;13.15;;;;;;;7.10;100.00;101035.69;4881675;29;20462;-74
2021/03/19 07:21:02;;;;;;;20.08;13.30;;;;;;;7.02;100.00;101040.03;4881526;29;20470;-75
2021/03/19 07:24:17;;;;;;;19.08;13.00;;;;;;;7.29;100.00;101034.88;4868012;29;20099;-75
2021/03/19 07:27:23;;;;;;;19.17;14.07;;;;;;;7.25;100.00;101035.72;4881650;29;20435;-75
2021/03/19 07:30:27;;;;;;;19.75;13.35;;;;;;;7.42;100.00;101032.28;4868189;29;20506;-75
2021/03/19 07:33:40;;;;;;;17.08;12.35;;;;;;;7.44;100.00;101040.09;4868499;29;20033;-75
2021/03/19 07:36:55;;;;;;;20.25;13.68;;;;;;;7.05;100.00;101046.13;4881183;29;20085;-75
2021/03/19 07:40:06;;;;;;;19.05;13.38;;;;;;;6.80;100.00;101036.53;4881939;29;20029;-75
2021/03/19 07:43:10;;;;;;;20.33;14.10;;;;;;;7.39;100.00;101036.63;4880961;29;20029;-76
2021/03/19 07:46:05;;;;;;;19.63;13.80;;;;;;;7.60;100.00;101036.63;4881582;29;20049;-74
2021/03/19 07:49:14;;;;;;;20.23;13.20;;;;;;;7.68;100.00;101037.47;4881104;29;20459;-76
2021/03/19 07:52:24;;;;;;;19.67;13.82;;;;;;;7.66;100.00;101028.78;4879085;29;20052;-75
2021/03/19 07:55:28;;;;;;;20.45;13.70;;;;;;;8.13;100.00;101029.56;4867773;29;20069;-76
2021/03/19 07:58:56;;;;;;;21.58;13.20;;;;;;;8.39;100.00;101035.59;4881295;29;20022;-75
2021/03/19 08:01:53;;;;;;;20.50;12.82;;;;;;;8.44;100.00;101039.94;4870026;29;20049;-75
2021/03/19 08:04:53;;;;;;;20.50;14.02;;;;;;;8.66;100.00;101036.38;4868844;29;20603;-74
2021/03/19 08:07:42;;;;;;;19.33;13.75;;;;;;;8.92;100.00;101038.84;4867894;29;20037;-75
2021/03/19 08:10:51;;;;;;;21.55;14.80;;;;;;;8.65;100.00;101037.22;4868568;29;20162;-76
2021/03/19 08:13:39;;;;;;;18.92;13.35;;;;;;;8.31;100.00;101039.97;4881108;29;20044;-75
2021/03/19 08:16:54;;;;;;;18.88;12.43;;;;;;;8.48;100.00;101044.28;4880854;29;20043;-75
2021/03/19 08:19:50;;;;;;;18.75;13.02;;;;;;;8.92;100.00;101033.63;4881342;29;20081;-75
2021/03/19 08:22:59;;;;;;;18.23;13.20;;;;;;;8.67;100.00;101042.44;4880535;29;20028;-74
2021/03/19 08:25:49;;;;;;;18.35;13.25;;;;;;;8.83;100.00;101036.28;4881406;29;20033;-74
2021/03/19 08:28:48;;;;;;;18.90;13.18;;;;;;;8.83;100.00;101037.16;4880287;29;20134;-75
2021/03/19 08:31:51;;;;;;;16.75;12.38;;;;;;;8.67;100.00;101042.44;4881827;29;20029;-74
2021/03/19 08:35:02;;;;;;;20.90;11.93;;;;;;;9.19;100.00;101033.44;4881437;29;20336;-73
2021/03/19 08:38:13;;;;;;;17.92;12.15;;;;;;;9.35;100.00;101041.16;4882484;29;20093;-75
2021/03/19 08:41:00;;;;;;;15.48;11.35;;;;;;;10.18;100.00;101021.22;4881521;29;20036;-75
2021/03/19 08:43:50;;;;;;;16.55;12.40;;;;;;;10.10;100.00;101026.56;4881344;29;20112;-75
2021/03/19 08:46:44;;;;;;;16.50;11.88;;;;;;;9.71;100.00;101025.19;4880621;29;20033;-74
2021/03/19 08:49:48;;;;;;;18.23;12.07;;;;;;;10.10;100.00;101029.19;4881423;29;20056;-73
2021/03/19 08:52:37;;;;;;;17.55;11.95;;;;;;;9.53;100.00;101025.31;4869273;29;20132;-74
2021/03/19 08:55:25;;;;;;;15.55;11.63;;;;;;;9.42;100.00;101021.06;4881467;29;20024;-76
2021/03/19 08:58:26;;;;;;;16.98;11.43;;;;;;;9.70;100.00;101007.72;4881129;29;20064;-73
2021/03/19 09:01:13;;;;;;;21.23;12.27;;;;;;;10.25;100.00;101023.78;4880508;29;20123;-73
2021/03/19 09:03:59;;;;;;;16.83;12.52;;;;;;;9.99;100.00;101010.06;4867156;29;20112;-73
2021/03/19 09:07:17;;;;;;;17.05;12.45;;;;;;;9.94;100.00;101012.72;4854259;29;20029;-73
2021/03/19 09:10:18;;;;;;;18.10;11.82;;;;;;;10.52;100.00;101010.34;4880858;29;20024;-74
2021/03/19 09:13:12;;;;;;;17.33;11.20;;;;;;;10.55;95.07;101015.53;4880106;29;20455;-74
2021/03/19 09:16:37;;;;;;;18.02;10.82;;;;;;;10.63;96.44;101016.31;4880080;29;20056;-75
2021/03/19 09:19:28;;;;;;;19.80;10.38;;;;;;;10.48;100.00;101018.28;4879908;29;20032;-76
2021/03/19 09:22:20;;;;;;;15.30;10.20;;;;;;;11.19;99.08;101016.38;4880098;29;20025;-73
2021/03/19 09:25:09;;;;;;;18.77;11.60;;;;;;;10.93;95.88;101010.66;4879868;29;20055;-76
2021/03/19 09:28:17;;;;;;;20.80;14.05;;;;;;;10.95;100.00;101015.88;4880451;29;20502;-75
2021/03/19 09:31:29;;;;;;;15.55;11.88;;;;;;;11.47;100.00;101020.31;4869153;29;20111;-75
2021/03/19 09:34:46;;;;;;;16.88;11.63;;;;;;;11.52;95.81;101015.84;4880464;29;20028;-76
2021/03/19 09:37:38;;;;;;;17.45;11.57;;;;;;;11.04;93.05;101029.72;4866166;29;20036;-75
2021/03/19 09:40:43;;;;;;;14.18;10.20;;;;;;;11.29;94.19;101017.13;4879210;29;20093;-75
2021/03/19 09:43:39;;;;;;;14.27;9.23;;;;;;;11.74;90.97;101022.47;4866575;29;20021;-76
2021/03/19 09:46:30;;;;;;;11.07;8.50;;;;;;;11.06;88.04;101017.47;4867031;29;20033;-76
2021/03/19 09:49:28;;;;;;;14.68;8.75;;;;;;;10.97;84.19;101022.81;4866484;29;20025;-76
2021/03/19 09:52:21;;;;;;;12.13;8.15;;;;;;;9.94;87.00;101023.19;4879614;29;20061;-75
2021/03/19 09:55:19;;;;;;;12.15;8.65;;;;;;;10.25;90.92;101029.03;4878812;29;20137;-75
2021/03/19 09:58:22;;;;;;;11.65;8.57;;;;;;;10.49;92.71;101027.84;4879136;29;20025;-73
2021/03/19 10:01:23;;;;;;;12.77;9.15;;;;;;;9.82;93.71;101032.91;4879299;29;20069;-73
2021/03/19 10:04:25;;;;;;;13.25;9.10;;;;;;;9.80;97.20;101038.16;4865576;29;20025;-73
2021/03/19 10:07:16;;;;;;;13.35;9.73;;;;;;;9.95;98.45;101034.53;4879574;29;20037;-74
2021/03/19 10:10:03;;;;;;;15.57;10.60;;;;;;;9.93;97.58;101037.16;4880579;29;20025;-75
2021/03/19 10:12:49;;;;;;;13.07;9.57;;;;;;;10.21;95.47;101035.19;4878703;29;20029;-74
2021/03/19 10:15:35;;;;;;;13.10;9.48;;;;;;;10.54;94.03;101042.66;4867151;29;20025;-74
2021/03/19 10:18:24;;;;;;;13.30;9.27;;;;;;;10.47;94.53;101037.47;4867321;29;20364;-74
2021/03/19 10:21:12;;;;;;;13.13;9.38;;;;;;;10.49;94.93;101046.19;4879686;29;20029;-74
2021/03/19 10:24:02;;;;;;;13.68;10.25;;;;;;;10.32;94.01;101032.44;4878772;29;20037;-74
2021/03/19 10:26:55;;;;;;;12.95;9.98;;;;;;;10.52;91.97;101041.78;4879734;29;20143;-75
2021/03/19 10:29:44;;;;;;;13.52;9.30;;;;;;;10.61;93.56;101038.19;4879215;29;20025;-74
2021/03/19 10:32:31;;;;;;;12.77;9.40;;;;;;;10.50;90.16;101038.31;4878998;29;20458;-74
2021/03/19 10:35:30;;;;;;;11.60;8.32;;;;;;;10.60;84.11;101037.31;4879889;29;20044;-75
2021/03/19 10:38:40;;;;;;;12.77;8.43;;;;;;;10.35;85.25;101033.25;4867043;29;20470;-76
2021/03/19 10:41:52;;;;;;;15.63;9.98;;;;;;;10.31;93.13;101034.19;4871316;29;20449;-73
2021/03/19 10:45:06;;;;;;;12.35;9.10;;;;;;;10.21;89.45;101036.91;4870800;29;20032;-75
2021/03/19 10:48:20;;;;;;;12.25;8.45;;;;;;;10.18;88.43;101031.72;4870181;29;20028;-74
2021/03/19 10:51:26;;;;;;;12.20;8.18;;;;;;;10.18;85.76;101043.06;4882998;29;20029;-75
2021/03/19 10:54:19;;;;;;;12.90;9.05;;;;;;;10.26;86.48;101033.38;4869151;29;20064;-74
2021/03/19 10:57:34;;;;;;;12.65;8.95;;;;;;;10.84;86.87;101033.53;4882639;29;20116;-72
2021/03/19 11:00:40;;;;;;;11.77;8.40;;;;;;;10.51;89.66;101036.56;4882250;29;20029;-74
2021/03/19 11:03:31;;;;;;;14.57;8.93;;;;;;;10.38;87.55;101027.13;4882602;29;20021;-74
2021/03/19 11:06:47;;;;;;;11.82;8.82;;;;;;;10.37;86.47;101025.38;4883373;29;20048;-74
2021/03/19 11:09:32;;;;;;;13.85;9.07;;;;;;;10.23;87.11;101030.78;4877603;29;20037;-74
2021/03/19 11:12:22;;;;;;;11.30;8.80;;;;;;;10.10;89.64;101024.78;4882142;29;20149;-74
2021/03/19 11:15:12;;;;;;;11.43;8.68;;;;;;;10.67;86.97;101020.63;4881772;29;20036;-74
2021/03/19 11:18:25;;;;;;;11.30;8.32;;;;;;;10.73;81.43;101012.66;4882022;29;20101;-73
2021/03/19 11:21:11;;;;;;;12.73;8.50;;;;;;;11.79;79.31;101018.03;4869344;29;20427;-73
2021/03/19 11:24:23;;;;;;;11.10;9.02;;;;;;;12.17;78.80;101023.44;4881415;29;20048;-73
2021/03/19 11:27:20;;;;;;;13.57;9.48;;;;;;;11.62;78.55;101014.81;4868303;29;20036;-73
2021/03/19 11:30:28;;;;;;;9.95;8.10;;;;;;;11.68;75.79;101005.97;4868286;29;20025;-73
2021/03/19 11:33:17;;;;;;;11.68;8.82;;;;;;;12.21;75.21;101004.09;4882668;29;20102;-72
2021/03/19 11:36:08;;;;;;;11.00;8.93;;;;;;;11.77;77.53;101004.06;4881739;29;20025;-73
2021/03/19 11:39:09;;;;;;;13.52;9.27;;;;;;;11.46;78.21;101007.22;4881457;29;20459;-73
2021/03/19 11:44:33;;;;;;;12.82;8.20;;;;;;;11.74;75.72;101000.66;5030813;23;20083;-74
2021/03/19 11:47:30;;;;;;;11.13;8.40;;;;;;;11.40;78.12;100988.94;4919652;29;20028;-74
2021/03/19 11:50:22;;;;;;;10.05;7.88;;;;;;;11.27;80.53;100993.53;4919696;29;20024;-73
2021/03/19 11:53:12;;;;;;;10.32;8.45;;;;;;;10.36;84.60;100990.47;4919159;29;20036;-73
2021/03/19 11:55:58;;;;;;;14.32;8.57;;;;;;;10.96;88.48;100988.75;4920091;29;20466;-73
2021/03/19 11:58:44;;;;;;;12.77;8.77;;;;;;;11.76;79.71;100989.22;4920350;29;20028;-73
2021/03/19 12:01:31;;;;;;;11.27;8.45;;;;;;;11.64;76.77;100981.56;4906834;29;20090;-73
2021/03/19 12:04:19;;;;;;;13.65;8.80;;;;;;;11.34;75.89;100982.06;4919715;29;20043;-74
2021/03/19 12:07:05;;;;;;;14.65;8.35;;;;;;;11.67;76.53;100981.50;4905651;29;20055;-73
2021/03/19 12:09:51;;;;;;;12.32;8.32;;;;;;;12.56;73.83;100978.00;4905447;29;20090;-73
2021/03/19 12:12:40;;;;;;;11.07;8.63;;;;;;;12.03;73.16;100980.84;4919206;29;20031;-74
2021/03/19 12:15:31;;;;;;;11.98;9.07;;;;;;;11.87;70.39;100984.66;4906416;29;20032;-73
2021/03/19 12:18:21;;;;;;;14.20;8.50;;;;;;;11.30;70.96;100979.50;4905637;29;20035;-73
2021/03/19 12:21:08;;;;;;;10.05;7.57;;;;;;;12.07;70.33;100979.00;4919010;29;20032;-74
2021/03/19 12:23:53;;;;;;;12.80;8.82;;;;;;;11.98;65.63;100971.31;4905002;29;20107;-73
2021/03/19 12:26:39;;;;;;;22.50;11.13;;;;;;;12.11;69.10;100983.31;4919177;29;20035;-73
2021/03/19 12:29:25;;;;;;;12.07;8.88;;;;;;;11.85;71.91;100988.19;4917994;29;20060;-74
2021/03/19 12:32:11;;;;;;;13.27;9.52;;;;;;;11.19;72.04;100981.41;4905261;29;20055;-74
2021/03/19 12:35:06;;;;;;;10.23;7.80;;;;;;;11.09;72.74;100980.69;4918852;29;20498;-73
2021/03/19 12:37:52;;;;;;;10.38;7.78;;;;;;;11.16;72.45;100977.09;4918928;29;20047;-74
2021/03/19 12:40:39;;;;;;;14.20;8.68;;;;;;;11.30;74.34;100983.00;4905705;29;20104;-74
2021/03/19 12:43:26;;;;;;;10.15;7.90;;;;;;;11.51;73.60;100985.25;4918694;29;20048;-74
2021/03/19 12:46:14;;;;;;;10.73;8.13;;;;;;;11.42;74.15;100974.06;4905184;29;20031;-75
2021/03/19 12:48:59;;;;;;;12.75;8.20;;;;;;;11.55;75.57;100981.69;4918121;29;20469;-73
2021/03/19 12:51:45;;;;;;;11.50;8.80;;;;;;;12.06;77.06;100991.25;4918668;29;20434;-74
2021/03/19 12:54:31;;;;;;;13.65;9.15;;;;;;;12.29;75.96;100985.56;4917933;29;20040;-74
2021/03/19 12:57:17;;;;;;;13.15;9.55;;;;;;;11.76;74.38;100976.09;4918050;29;20038;-73
2021/03/19 13:00:05;;;;;;;14.65;8.55;;;;;;;11.79;74.73;100977.78;4917879;29;20432;-73
2021/03/19 13:02:51;;;;;;;11.50;8.80;;;;;;;12.02;73.02;100986.97;4917230;29;20111;-74
2021/03/19 13:05:40;;;;;;;10.43;8.20;;;;;;;11.43;80.21;100984.53;4917507;29;20028;-73
2021/03/19 13:08:26;;;;;;;14.13;9.48;;;;;;;11.37;81.65;100984.59;4920269;29;20032;-74
2021/03/19 13:11:13;;;;;;;12.05;8.70;;;;;;;11.57;79.05;100977.28;4905528;29;20358;-74
2021/03/19 13:13:59;;;;;;;11.00;8.10;;;;;;;11.92;73.23;100976.66;4904870;29;20043;-73
2021/03/19 13:16:44;;;;;;;15.32;8.80;;;;;;;12.45;71.27;100979.97;4917924;29;20039;-73